Aktualne dane pomiarowe

Uwaga, wersja testowa! Automatyczne pobieranie danych za pomocą narzędzi lub skryptów to umożliwiających jest zabronione.

Dane meteo z obszaru Polski uzyskane na podstawie depesz SYNOP pobieranych co godzinę z NWS. Najedź myszką na symbol przedstawiony w tabeli, aby uzyskać informacje co do jego znaczenia. Prosimy pamiętać, że to testowa wersja strony, która jeszcze nie jest ukończona. Stworzono również jest krótki FAQ dotyczący korzystania z tej podstrony Anomalie temperatury w chwili obecnej odniesione są do okresu referencyjnego 1951-2016. Okres ten będzie później zmieniony na 1981-2010. Kliknij ikonę aby pobrać plik CSV. Kliknij ikonę aby wygenerować mapę synoptyczną dla danego terminu.

Wybierz Datę:    

        

Lublin-Radawiec (12495)

Dane terminowe dla wybranej stacji. Kliknij datę, aby otrzymać dane z tego terminu dla wszystkich stacji.

TemperaturaZachmurzenieWiatrCiśnienieOpadyPogoda
 Data t td wb tx tn tg rh  Nt Nl Cl Cm Ch ws wd g1 g2 wx mslp ppp ch 24h 12h t ww ww w1 w2  
2019-06-19 23:00:00 17.3 16.9 17.0--- 987.0wx-wx2wx---1012.5 984.3 -0.4---wx---
2019-06-19 22:00:00 17.9 17.4 17.5--- 9710.0wx-wx2wx---1012.8 984.7 -0.5---------
2019-06-19 21:00:00 18.7 18.0 18.2--- 9610.0wx-wx2wx--21012.8 984.8 0.1---------
2019-06-19 20:00:00 19.3 18.1 18.4--- 9312.0wx-wxwx2wx--21012.7 984.7 -0.1---------
2019-06-19 19:00:00 20.4 18.6 19.1--- 8910.0wx-wxwx3wx--31013.1 985.2 0.4---------
2019-06-19 18:00:00 21.2 19.6 20.0 27.3 19.4- 9112.0wxwxwxwxwx3wx-931012.5 984.7 -0.5- 2.012wx-w1w2--
2019-06-19 17:00:00 22.1 19.4 20.2--- 8518.0wxwxwxwxwx3wx--31012.5 984.8 -1.9---------
2019-06-19 16:00:00 22.5 19.4 20.3--- 8320.0wxwxwxwxwx3wx--31012.5 984.8 -1.5---wx---
2019-06-19 15:00:00 22.3 19.4 20.2--- 8414.0wxwxwxwx4wx---1012.9 985.2 -1.0---wx-w1w2--
2019-06-19 14:00:00 20.1 18.9 19.2--- 9315.0wxwxwxwx2wx--21014.7 986.7 0.1---wx-w1w2--
2019-06-19 13:00:00 19.5 17.7 18.2--- 8912.0wxwxwx4wx-941014.3 986.3 -0.7---wx-w1w2--
2019-06-19 12:00:00 25.1 17.9 20.2--- 6430.0wxwxwx3wx--31013.7 986.2 -1.3- 0.06wx---
2019-06-19 11:00:00 25.8 18.3 20.7--- 6330.0wxwxwxwx4wx--41014.0 986.6 -1.3---------
2019-06-19 10:00:00 26.1 18.6 21.0--- 6325.0wxwxwxwxwx4wx--41014.4 987.0 -0.9---------
2019-06-19 09:00:00 24.9 18.0 20.2--- 6625.0wxwxwxwxwx4wx--41015.0 987.5 -0.6---------
2019-06-19 08:00:00 22.8 17.4 19.1--- 7230.0wxwxwxwx3wx---1015.6 987.9 -0.3---------
2019-06-19 07:00:00 21.4 16.9 18.3--- 7630.0wxwxwxwx3wx--31015.8 987.9 -0.5---------
2019-06-19 06:00:00 20.7 16.2 17.6 21.4 15.3 13 7540.0wxwxwxwx3wx--31016.0 988.1 -0.3- 0.012----- 9.3
2019-06-19 05:00:00 19.1 16.2 17.1--- 8330.0wxwxwxwx3wx--31016.3 988.2 -0.4---------
2019-06-19 04:00:00 18.3 15.6 16.4--- 8430.0wxwxwxwx2wx--21016.6 988.4 -0.6---------
2019-06-19 03:00:00 17.6 15.3 16.0--- 8630.0wxwxwxwx2wx--21016.7 988.4 -0.9---------
2019-06-19 02:00:00 17.4 15.1 15.8--- 8626.0wx-wxwx2wx--21016.9 988.6 -0.9---------
2019-06-19 01:00:00 16.7 14.8 15.4--- 8920.0wx-wxwx1wx--11017.4 989.0 -0.9---------
2019-06-19 00:00:00 16.7 14.4 15.1--- 8630.0wx-wxwx1wx--11017.7 989.3 -0.7- 0.06------
2019-06-18 23:00:00 15.9 13.5 14.2--- 8622.0wx-wxwx1wx--11018.0 989.5 -0.4---------
2019-06-18 22:00:00 17.0 14.2 15.1--- 8430.0wx-wx1wx---1018.3 989.9 0.0---------
2019-06-18 21:00:00 16.8 14.4 15.1--- 8625.0wx-wxwx1wx--11018.4 990.0 0.5---------
2019-06-18 20:00:00 17.8 14.8 15.7--- 8325.0wx-wxwx0---01018.2 989.9 0.0---------
2019-06-18 19:00:00 19.5 14.8 16.3--- 7430.0wxwxwxwxwx0---01018.0 989.9 -0.3---------
2019-06-18 18:00:00 21.4 15.1 17.2 25.0 19.1- 6740.0wxwxwxwxwx1wx--11017.4 989.5 -0.9- 0.012------
2019-06-18 17:00:00 22.8 15.0 17.7--- 6135.0wxwxwxwxwx2wx---1017.7 989.9 -1.0---------
2019-06-18 16:00:00 23.4 15.3 18.1--- 6040.0wxwxwxwx2wx--21017.9 990.2 -1.1---------
2019-06-18 15:00:00 23.3 15.7 18.3--- 6235.0wxwxwx3wx---1018.2 990.4 -1.3---------
2019-06-18 14:00:00 24.3 16.1 18.9--- 6030.0wxwxwxwx4wx--41018.6 990.9 -1.0---------
2019-06-18 13:00:00 23.6 15.7 18.4--- 6135.0wxwxwxwx3wx--31019.1 991.3 -0.9---------
2019-06-18 12:00:00 23.6 15.7 18.4--- 6130.0wxwxwxwx3wx--31019.5 991.7 -0.8- 0.06------
2019-06-18 11:00:00 24.7 15.7 18.8--- 5728.0wxwxwxwx2wx--21019.6 991.9 -0.8---------
2019-06-18 10:00:00 23.0 14.1 17.3--- 5735.0wxwxwxwx2wx--21020.0 992.2 -0.6---------
2019-06-18 09:00:00 23.3 14.1 17.4--- 5629.0wxwxwxwx2wx--21020.3 992.5 -0.4---------
2019-06-18 08:00:00 22.2 14.9 17.4--- 6328.0wxwxwxwx2wx--21020.6 992.7 0.1---------
2019-06-18 07:00:00 20.3 15.4 17.0--- 7330.0wxwxwxwxwx2wx---1020.9 992.8 0.4---------
2019-06-18 06:00:00 19.4 15.4 16.7 20.0 14.5 14 7829.0wxwxwxwxwx1wx---1021.1 992.9 0.5-------- 3.3
2019-06-18 05:00:00 17.2 14.9 15.6--- 8624.0wxwxwxwxwx2wx--21021.0 992.6 0.3---------
2019-06-18 04:00:00 15.5 14.5 14.8--- 9418.0wxwxwxwxwx1wx--11021.0 992.4 0.1---------
2019-06-18 03:00:00 15.2 14.2 14.5--- 9420.0wxwxwxwxwx1wx--11021.0 992.4 0.0---------
2019-06-18 02:00:00 15.6 14.2 14.6--- 9124.0wx-wx1wx---1020.9 992.3 -0.2---------
2019-06-18 01:00:00 15.8 14.4 14.8--- 9125.0wx-wx2wx---1020.8 992.3 -0.1---------
2019-06-18 00:00:00 15.2 14.2 14.5--- 9421.0wx-wx2wx--21021.0 992.4 0.1- 0.06------
3.1 ms

 

Print Friendly, PDF & Email